createdAt,value
2024-02-06T00:00:54.055Z,57.36
2024-02-06T00:03:36.026Z,56.66
2024-02-06T00:06:43.892Z,56.57
2024-02-06T00:28:28.222Z,53.91
2024-02-06T00:30:55.011Z,54.62
2024-02-06T00:34:13.135Z,54.93
2024-02-06T00:36:40.295Z,55.62
2024-02-06T00:39:08.275Z,54.25
2024-02-06T00:42:18.249Z,54.63
2024-02-06T00:44:44.954Z,55.00
2024-02-06T00:47:11.682Z,54.66
2024-02-06T00:49:50.573Z,53.41
2024-02-06T00:52:17.408Z,53.38
2024-02-06T00:54:44.183Z,53.47
2024-02-06T00:57:11.038Z,53.36
2024-02-06T00:59:37.821Z,53.06
2024-02-06T01:02:07.084Z,54.17
2024-02-06T01:08:22.141Z,54.19
2024-02-06T01:10:49.278Z,53.60
2024-02-06T01:13:16.250Z,53.66
2024-02-06T01:15:46.002Z,53.60
2024-02-06T01:18:16.004Z,53.13
2024-02-06T01:20:43.153Z,53.10
2024-02-06T01:23:24.985Z,53.14
2024-02-06T01:26:35.786Z,54.44
2024-02-06T01:36:59.896Z,53.78
2024-02-06T01:39:52.166Z,53.77
2024-02-06T01:48:38.936Z,54.03
2024-02-06T01:51:48.643Z,54.19
2024-02-06T01:54:16.819Z,53.76
2024-02-06T01:56:47.578Z,52.92
2024-02-06T02:00:03.001Z,53.87
2024-02-06T02:06:16.859Z,53.56
2024-02-06T02:12:15.435Z,54.17
2024-02-06T02:14:42.510Z,53.73
2024-02-06T02:17:11.550Z,53.49
2024-02-06T02:19:38.457Z,53.04
2024-02-06T02:22:05.449Z,52.82
2024-02-06T02:24:32.435Z,53.17
2024-02-06T02:27:00.588Z,52.61
2024-02-06T02:29:28.552Z,53.58
2024-02-06T02:31:56.053Z,53.19
2024-02-06T02:34:22.990Z,52.95
2024-02-06T02:36:49.914Z,52.92
2024-02-06T02:39:16.797Z,53.78
2024-02-06T02:41:46.005Z,53.23
2024-02-06T02:44:12.701Z,51.74
2024-02-06T02:46:57.167Z,54.43
2024-02-06T02:53:56.398Z,53.69
2024-02-06T02:57:01.420Z,53.53
2024-02-06T03:06:39.685Z,55.61
2024-02-06T03:09:06.860Z,55.80
2024-02-06T03:11:38.302Z,55.56
2024-02-06T03:14:05.143Z,54.38
2024-02-06T03:16:31.915Z,53.22
2024-02-06T03:18:59.620Z,53.94
2024-02-06T03:21:46.834Z,53.92
2024-02-06T03:27:41.271Z,53.85
2024-02-06T03:30:37.787Z,52.82
2024-02-06T03:33:04.709Z,53.89
2024-02-06T03:35:39.863Z,54.61
2024-02-06T03:38:06.594Z,53.85
2024-02-06T03:40:36.404Z,55.68
2024-02-06T03:43:05.560Z,54.95
2024-02-06T04:03:34.066Z,54.17
2024-02-06T04:06:29.909Z,53.41
2024-02-06T04:08:59.000Z,54.43
2024-02-06T04:15:21.169Z,56.64
2024-02-06T04:17:51.864Z,56.48
2024-02-06T04:24:08.368Z,56.97
2024-02-06T04:26:44.857Z,56.37
2024-02-06T04:29:12.117Z,55.62
2024-02-06T04:31:51.227Z,57.38
2024-02-06T04:35:07.975Z,56.04
2024-02-06T04:37:41.318Z,56.01
2024-02-06T04:44:06.428Z,56.66
2024-02-06T04:46:33.230Z,57.16
2024-02-06T04:49:03.494Z,57.64
2024-02-06T04:55:17.973Z,56.62
2024-02-06T04:58:12.910Z,55.17
2024-02-06T05:00:51.140Z,55.70
2024-02-06T05:04:08.317Z,55.68
2024-02-06T05:06:40.908Z,55.29
2024-02-06T05:09:10.516Z,56.03
2024-02-06T05:15:57.941Z,54.65
2024-02-06T05:18:30.702Z,54.10
2024-02-06T05:20:57.822Z,54.18
2024-02-06T05:23:33.611Z,54.00
2024-02-06T05:26:00.414Z,53.95
2024-02-06T05:28:30.250Z,54.35
2024-02-06T05:31:03.224Z,53.17
2024-02-06T05:33:52.170Z,52.54
2024-02-06T05:36:19.014Z,52.98
2024-02-06T05:46:05.809Z,53.00
2024-02-06T05:48:37.389Z,52.50
2024-02-06T05:51:09.920Z,52.85
2024-02-06T06:01:40.154Z,53.35
2024-02-06T06:07:16.676Z,56.43
2024-02-06T06:09:55.196Z,56.15
2024-02-06T06:17:21.436Z,57.30
2024-02-06T06:20:00.056Z,57.25
2024-02-06T06:26:08.229Z,57.85
2024-02-06T06:28:35.154Z,57.36
2024-02-06T06:31:01.935Z,57.05
2024-02-06T06:33:34.628Z,56.56
2024-02-06T06:36:01.476Z,55.85
2024-02-06T06:38:40.127Z,55.94
2024-02-06T06:41:06.947Z,56.29
2024-02-06T06:43:36.631Z,56.33
2024-02-06T06:46:08.062Z,55.89
2024-02-06T06:48:42.868Z,57.33
2024-02-06T06:51:09.718Z,57.98
2024-02-06T06:53:36.941Z,57.47
2024-02-06T06:56:04.412Z,57.48
2024-02-06T06:58:31.254Z,57.16
2024-02-06T07:00:58.295Z,58.35
2024-02-06T07:03:25.127Z,56.75
2024-02-06T07:05:52.093Z,57.89
2024-02-06T07:08:18.814Z,57.16
2024-02-06T07:10:45.588Z,57.64
2024-02-06T07:13:12.473Z,56.66
2024-02-06T07:15:42.572Z,57.30
2024-02-06T07:18:09.429Z,58.29
2024-02-06T07:20:59.115Z,58.53
2024-02-06T07:23:28.800Z,57.45
2024-02-06T07:25:55.547Z,58.48
2024-02-06T07:28:22.382Z,57.90
2024-02-06T07:30:52.244Z,57.64
2024-02-06T07:33:27.888Z,57.48
2024-02-06T07:35:57.111Z,56.48
2024-02-06T07:38:30.009Z,56.88
2024-02-06T07:41:00.711Z,56.72
2024-02-06T07:43:33.623Z,56.80
2024-02-06T07:46:00.463Z,57.18
2024-02-06T07:48:27.309Z,58.11
2024-02-06T07:50:54.205Z,59.19
2024-02-06T07:53:28.166Z,58.03
2024-02-06T07:55:54.986Z,56.66
2024-02-06T07:58:21.769Z,57.22
2024-02-06T08:00:48.674Z,55.66
2024-02-06T08:03:15.449Z,56.60
2024-02-06T08:05:42.426Z,54.92
2024-02-06T08:08:15.284Z,53.27
2024-02-06T08:10:42.115Z,52.10
2024-02-06T08:13:08.897Z,50.29
2024-02-06T08:15:35.629Z,50.26
2024-02-06T08:18:02.440Z,50.41
2024-02-06T08:20:29.342Z,50.55
2024-02-06T08:22:56.372Z,51.88
2024-02-06T08:25:23.639Z,51.30
2024-02-06T08:27:53.698Z,51.49
2024-02-06T08:30:20.443Z,50.80
2024-02-06T08:32:47.207Z,51.04
2024-02-06T08:35:14.148Z,50.90
2024-02-06T08:37:41.234Z,49.59
2024-02-06T08:40:08.800Z,51.00
2024-02-06T08:42:35.989Z,49.95
2024-02-06T08:45:03.174Z,50.46
2024-02-06T08:47:29.889Z,50.76
2024-02-06T08:49:57.367Z,51.81
2024-02-06T08:52:24.314Z,52.79
2024-02-06T08:54:51.252Z,51.94
2024-02-06T08:57:21.196Z,51.40
2024-02-06T08:59:47.971Z,51.45
2024-02-06T09:02:15.805Z,52.37
2024-02-06T09:04:44.083Z,52.63
2024-02-06T09:07:11.026Z,52.33
2024-02-06T09:09:37.847Z,52.94
2024-02-06T09:12:04.665Z,53.34
2024-02-06T09:14:33.291Z,51.61
2024-02-06T09:17:02.105Z,47.95
2024-02-06T09:19:29.408Z,49.29
2024-02-06T09:21:56.296Z,47.94
2024-02-06T09:24:29.087Z,47.21
2024-02-06T09:26:55.831Z,47.27
2024-02-06T09:29:27.310Z,46.92
2024-02-06T09:31:56.950Z,46.70
2024-02-06T09:34:23.934Z,48.17
2024-02-06T09:36:56.151Z,48.28
2024-02-06T09:39:25.262Z,48.24
2024-02-06T09:41:56.352Z,49.01
2024-02-06T09:44:23.434Z,50.00
2024-02-06T09:46:53.224Z,50.83
2024-02-06T09:49:20.412Z,49.36
2024-02-06T09:51:47.341Z,48.65
2024-02-06T09:54:17.699Z,50.14
2024-02-06T09:56:47.163Z,48.72
2024-02-06T09:59:18.798Z,49.41
2024-02-06T10:01:47.334Z,50.75
2024-02-06T10:04:50.028Z,49.56
2024-02-06T10:07:17.268Z,50.80
2024-02-06T10:09:57.377Z,50.96
2024-02-06T10:12:28.445Z,49.59
2024-02-06T10:14:55.161Z,49.26
2024-02-06T10:17:21.976Z,48.95
2024-02-06T10:19:48.715Z,50.11
2024-02-06T10:22:15.587Z,48.77
2024-02-06T10:25:05.240Z,47.94
2024-02-06T10:27:32.276Z,46.28
2024-02-06T10:30:11.439Z,47.88
2024-02-06T10:32:47.247Z,47.11
2024-02-06T10:35:23.373Z,47.43
2024-02-06T10:37:50.431Z,48.30
2024-02-06T10:40:17.273Z,46.83
2024-02-06T10:45:49.599Z,46.14
2024-02-06T10:48:11.619Z,46.93
2024-02-06T10:51:06.234Z,46.71
2024-02-06T10:54:04.169Z,46.46
2024-02-06T10:56:34.760Z,45.71
2024-02-06T10:59:08.845Z,45.21
2024-02-06T11:01:41.589Z,44.99
2024-02-06T11:04:12.895Z,45.08
2024-02-06T11:07:00.697Z,44.25
2024-02-06T11:09:29.458Z,44.58
2024-02-06T11:12:01.610Z,46.28
2024-02-06T11:14:36.286Z,45.17
2024-02-06T11:17:09.754Z,46.52
2024-02-06T11:19:52.305Z,46.30
2024-02-06T11:22:34.844Z,47.15
2024-02-06T11:25:28.169Z,47.00
2024-02-06T11:27:57.250Z,48.16
2024-02-06T11:30:24.683Z,48.38
2024-02-06T11:33:07.629Z,48.39
2024-02-06T11:35:34.887Z,48.69
2024-02-06T11:38:03.794Z,48.11
2024-02-06T11:40:31.194Z,47.84
2024-02-06T11:46:46.507Z,49.57
2024-02-06T11:49:27.066Z,49.16
2024-02-06T11:51:59.715Z,48.94
2024-02-06T11:57:44.184Z,49.04
2024-02-06T12:00:11.514Z,50.87
2024-02-06T12:02:38.323Z,50.76
2024-02-06T12:05:08.872Z,50.96
2024-02-06T12:07:36.369Z,52.30
2024-02-06T12:10:10.581Z,50.92
2024-02-06T12:12:38.440Z,50.44
2024-02-06T12:15:11.317Z,50.53
2024-02-06T12:17:48.168Z,50.86
2024-02-06T12:20:18.284Z,50.03
2024-02-06T12:22:59.749Z,49.81
2024-02-06T12:25:28.734Z,49.64
2024-02-06T12:28:08.977Z,49.46
2024-02-06T12:30:35.931Z,49.96
2024-02-06T12:33:03.626Z,49.49
2024-02-06T12:39:06.390Z,49.05
2024-02-06T12:42:19.512Z,50.16
2024-02-06T12:44:52.637Z,50.52
2024-02-06T12:47:20.404Z,50.32
2024-02-06T12:52:27.914Z,51.62
2024-02-06T12:54:55.508Z,50.34
2024-02-06T12:57:25.682Z,50.54
2024-02-06T12:59:54.897Z,49.60
2024-02-06T13:02:30.880Z,49.80
2024-02-06T13:05:07.521Z,49.41
2024-02-06T13:07:34.742Z,49.81
2024-02-06T13:10:05.879Z,49.71
2024-02-06T13:12:43.583Z,50.25
2024-02-06T13:15:10.419Z,54.79
2024-02-06T13:17:38.957Z,50.76
2024-02-06T13:20:41.523Z,49.17
2024-02-06T13:23:21.768Z,50.06
2024-02-06T13:25:50.140Z,49.10
2024-02-06T13:31:05.378Z,48.98
2024-02-06T13:33:32.381Z,49.61
2024-02-06T13:35:59.236Z,49.94
2024-02-06T13:38:25.976Z,49.15
2024-02-06T13:40:55.593Z,49.85
2024-02-06T13:43:25.509Z,49.21
2024-02-06T13:45:52.381Z,49.42
2024-02-06T13:48:39.514Z,49.87
2024-02-06T13:51:41.124Z,50.46
2024-02-06T13:54:07.867Z,49.09
2024-02-06T13:56:35.846Z,48.68
2024-02-06T13:59:02.632Z,49.23
2024-02-06T14:01:29.834Z,49.41
2024-02-06T14:04:07.014Z,48.55
2024-02-06T14:06:33.838Z,48.66
2024-02-06T14:09:12.549Z,49.25
2024-02-06T14:11:42.802Z,50.25
2024-02-06T14:14:18.390Z,50.11
2024-02-06T14:16:45.154Z,50.10
2024-02-06T14:19:12.242Z,50.10
2024-02-06T14:21:38.969Z,49.72
2024-02-06T14:24:06.028Z,50.94
2024-02-06T14:26:46.840Z,51.26
2024-02-06T14:32:19.259Z,49.50
2024-02-06T14:34:46.176Z,49.63
2024-02-06T14:37:53.822Z,48.89
2024-02-06T14:40:20.602Z,49.55
2024-02-06T14:42:47.314Z,48.04
2024-02-06T14:45:24.847Z,49.44
2024-02-06T14:52:14.178Z,48.01
2024-02-06T14:54:41.336Z,49.47
2024-02-06T14:57:09.117Z,50.20
2024-02-06T14:59:37.685Z,49.67
2024-02-06T15:02:07.774Z,49.39
2024-02-06T15:04:34.752Z,48.67
2024-02-06T15:07:02.082Z,48.73
2024-02-06T15:09:34.714Z,48.75
2024-02-06T15:12:10.246Z,49.31
2024-02-06T15:14:37.026Z,49.39
2024-02-06T15:17:05.849Z,49.27
2024-02-06T15:19:32.761Z,50.04
2024-02-06T15:21:59.661Z,49.55
2024-02-06T15:24:26.463Z,49.79
2024-02-06T15:38:07.567Z,50.99
2024-02-06T15:41:05.186Z,50.65
2024-02-06T15:44:01.066Z,51.14
2024-02-06T15:46:30.048Z,50.87
2024-02-06T15:48:57.227Z,51.58
2024-02-06T15:51:24.030Z,51.24
2024-02-06T15:53:50.860Z,51.22
2024-02-06T16:03:40.559Z,52.70
2024-02-06T16:06:16.124Z,54.17
2024-02-06T16:08:58.024Z,53.30
2024-02-06T16:11:24.792Z,53.55
2024-02-06T16:13:51.794Z,54.56
2024-02-06T16:16:19.000Z,54.70
2024-02-06T16:19:33.841Z,55.79
2024-02-06T16:21:58.548Z,55.85
2024-02-06T16:24:31.042Z,55.89
2024-02-06T16:27:24.541Z,55.11
2024-02-06T16:30:25.617Z,54.45
2024-02-06T16:32:52.486Z,55.68
2024-02-06T16:35:19.430Z,55.18
2024-02-06T16:37:47.406Z,57.02
2024-02-06T16:46:35.512Z,57.67
2024-02-06T16:49:06.869Z,56.36
2024-02-06T16:51:52.755Z,55.90
2024-02-06T16:58:17.518Z,57.50
2024-02-06T17:08:49.109Z,60.30
2024-02-06T17:11:15.840Z,60.62
2024-02-06T17:34:52.527Z,57.77
2024-02-06T17:37:23.023Z,59.37
2024-02-06T17:46:29.903Z,61.39
2024-02-06T17:48:56.710Z,62.00
2024-02-06T17:51:33.209Z,61.37
2024-02-06T17:54:35.010Z,62.34
2024-02-06T17:57:04.789Z,62.76
2024-02-06T17:59:37.512Z,61.33
2024-02-06T18:04:45.641Z,61.99
2024-02-06T18:07:13.441Z,62.70
2024-02-06T18:09:40.212Z,63.40
2024-02-06T18:12:13.086Z,63.65
2024-02-06T18:14:49.555Z,63.92
2024-02-06T18:17:18.808Z,65.37
2024-02-06T18:19:49.444Z,66.92
2024-02-06T18:22:43.324Z,67.35
2024-02-06T18:25:33.201Z,67.74
2024-02-06T18:27:59.995Z,67.90
2024-02-06T18:30:27.875Z,67.57
2024-02-06T18:32:57.752Z,67.05
2024-02-06T18:35:24.618Z,68.03
2024-02-06T18:37:51.564Z,68.33
2024-02-06T18:44:21.288Z,68.97
2024-02-06T18:47:29.040Z,68.16
2024-02-06T18:50:05.523Z,68.17
2024-02-06T18:53:10.898Z,66.79
2024-02-06T18:56:16.567Z,65.76
2024-02-06T18:58:43.542Z,65.88
2024-02-06T19:01:16.475Z,66.99
2024-02-06T19:03:58.537Z,66.26
2024-02-06T19:06:39.037Z,65.85
2024-02-06T19:12:48.241Z,65.89
2024-02-06T19:15:18.707Z,65.60
2024-02-06T19:17:45.846Z,65.72
2024-02-06T19:20:13.158Z,64.97
2024-02-06T19:22:49.339Z,65.08
2024-02-06T19:25:19.152Z,65.85
2024-02-06T19:28:24.548Z,64.88
2024-02-06T19:31:00.555Z,65.27
2024-02-06T19:33:27.473Z,65.79
2024-02-06T19:36:03.794Z,64.51
2024-02-06T19:38:51.902Z,66.78
2024-02-06T19:41:18.932Z,66.21
2024-02-06T19:43:54.934Z,65.48
2024-02-06T19:50:27.326Z,67.21
2024-02-06T19:53:02.097Z,68.74
2024-02-06T19:56:09.696Z,68.44
2024-02-06T19:59:04.815Z,70.18
2024-02-06T20:05:26.364Z,69.19
2024-02-06T20:11:44.656Z,69.06
2024-02-06T20:17:17.615Z,67.26
2024-02-06T20:19:44.813Z,67.15
2024-02-06T20:22:55.129Z,67.11
2024-02-06T20:25:35.454Z,68.75
2024-02-06T20:28:17.011Z,68.42
2024-02-06T20:30:43.815Z,68.04
2024-02-06T20:33:16.317Z,68.43
2024-02-06T20:35:43.176Z,67.90
2024-02-06T20:38:12.684Z,67.96
2024-02-06T20:40:39.433Z,68.64
2024-02-06T20:43:47.290Z,70.76
2024-02-06T20:46:22.739Z,70.91
2024-02-06T20:48:49.523Z,69.04
2024-02-06T20:51:25.496Z,69.59
2024-02-06T20:53:52.294Z,71.18
2024-02-06T20:56:23.921Z,71.64
2024-02-06T20:58:50.861Z,70.96
2024-02-06T21:01:17.813Z,72.16
2024-02-06T21:03:47.004Z,72.24
2024-02-06T21:06:13.861Z,72.16
2024-02-06T21:08:40.666Z,71.52
2024-02-06T21:11:10.551Z,70.86
2024-02-06T21:13:40.023Z,70.61
2024-02-06T21:16:34.679Z,72.30
2024-02-06T21:19:09.589Z,72.11
2024-02-06T21:21:45.362Z,71.58
2024-02-06T21:24:16.404Z,70.83
2024-02-06T21:26:50.481Z,68.56
2024-02-06T21:29:21.458Z,69.38
2024-02-06T21:31:53.918Z,70.74
2024-02-06T21:34:22.174Z,71.90
2024-02-06T21:36:49.101Z,71.61
2024-02-06T21:39:15.856Z,70.82
2024-02-06T21:44:57.523Z,73.63
2024-02-06T21:47:30.129Z,72.85
2024-02-06T21:50:03.430Z,73.14
2024-02-06T21:55:48.835Z,73.17
2024-02-06T21:58:50.587Z,72.05
2024-02-06T22:02:03.225Z,71.41
2024-02-06T22:04:30.221Z,73.00
2024-02-06T22:07:08.411Z,71.21
2024-02-06T22:09:57.851Z,71.43
2024-02-06T22:12:25.029Z,72.22
2024-02-06T22:17:58.028Z,72.85
2024-02-06T22:20:34.538Z,71.37
2024-02-06T22:23:01.437Z,69.85
2024-02-06T22:25:33.812Z,71.00
2024-02-06T22:28:05.075Z,70.27
2024-02-06T22:30:48.389Z,69.83
2024-02-06T22:33:38.806Z,70.11
2024-02-06T22:36:15.009Z,71.52
2024-02-06T22:41:29.420Z,71.26
2024-02-06T22:43:56.155Z,71.09
2024-02-06T22:46:22.943Z,69.52
2024-02-06T22:49:01.984Z,69.50
2024-02-06T22:51:38.196Z,68.31
2024-02-06T22:54:05.572Z,68.17
2024-02-06T22:56:32.287Z,67.96
2024-02-06T22:58:59.105Z,69.02
2024-02-06T23:01:25.946Z,69.23
2024-02-06T23:03:55.286Z,68.78
2024-02-06T23:06:22.081Z,67.70
2024-02-06T23:08:51.745Z,69.57
2024-02-06T23:11:27.528Z,68.16
2024-02-06T23:13:54.678Z,67.52
2024-02-06T23:16:21.917Z,68.93
2024-02-06T23:18:48.915Z,70.60
2024-02-06T23:21:16.440Z,70.07
2024-02-06T23:23:43.391Z,69.44
2024-02-06T23:26:10.671Z,68.48
2024-02-06T23:28:38.303Z,67.37
2024-02-06T23:31:40.991Z,68.29
2024-02-06T23:34:07.874Z,69.21
2024-02-06T23:36:34.575Z,68.25
2024-02-06T23:39:13.800Z,69.44
2024-02-06T23:41:48.339Z,71.64
2024-02-06T23:44:18.012Z,72.21
2024-02-06T23:46:44.881Z,70.95
2024-02-06T23:49:20.698Z,70.64
2024-02-06T23:51:47.463Z,69.18
2024-02-06T23:54:16.917Z,69.81
2024-02-06T23:56:43.593Z,69.80
2024-02-06T23:59:10.371Z,69.90
